createdAt,value
2022-10-23T00:01:37.238Z,95012.13
2022-10-23T00:04:11.570Z,95005.47
2022-10-23T00:06:38.196Z,95005.13
2022-10-23T00:09:06.767Z,95005.00
2022-10-23T00:11:34.821Z,95000.28
2022-10-23T00:14:04.527Z,95002.22
2022-10-23T00:16:31.284Z,95003.00
2022-10-23T00:18:57.755Z,95000.09
2022-10-23T00:21:24.841Z,94999.31
2022-10-23T00:23:51.712Z,94998.31
2022-10-23T00:26:18.332Z,95004.88
2022-10-23T00:28:48.135Z,95010.47
2022-10-23T00:31:15.577Z,95001.28
2022-10-23T00:33:43.436Z,95005.97
2022-10-23T00:36:12.752Z,95010.94
2022-10-23T00:38:40.305Z,95011.81
2022-10-23T00:41:09.621Z,95004.41
2022-10-23T00:44:08.988Z,95006.31
2022-10-23T00:46:37.276Z,95009.22
2022-10-23T00:49:05.860Z,95009.78
2022-10-23T00:51:43.663Z,95000.69
2022-10-23T00:54:23.417Z,95001.97
2022-10-23T00:56:52.616Z,94999.63
2022-10-23T00:59:19.075Z,94998.50
2022-10-23T01:01:45.817Z,94993.75
2022-10-23T01:04:12.504Z,94999.88
2022-10-23T01:06:54.024Z,95005.63
2022-10-23T01:09:36.960Z,94999.00
2022-10-23T01:12:14.960Z,95008.69
2022-10-23T01:15:05.254Z,94996.53
2022-10-23T01:17:51.301Z,94990.50
2022-10-23T01:20:32.286Z,94993.41
2022-10-23T01:23:16.791Z,94999.19
2022-10-23T01:26:11.275Z,94990.03
2022-10-23T01:28:52.053Z,94985.81
2022-10-23T01:32:04.795Z,94977.53
2022-10-23T01:34:56.403Z,94978.16
2022-10-23T01:37:44.681Z,94979.22
2022-10-23T01:40:23.526Z,94981.13
2022-10-23T01:42:54.930Z,94975.38
2022-10-23T01:45:32.773Z,94977.84
2022-10-23T01:48:01.561Z,94969.19
2022-10-23T01:50:30.228Z,94965.84
2022-10-23T01:52:57.147Z,94969.31
2022-10-23T01:55:24.868Z,94968.13
2022-10-23T01:57:53.435Z,94962.63
2022-10-23T02:00:20.711Z,94958.06
2022-10-23T02:02:48.972Z,94958.97
2022-10-23T02:05:25.769Z,94947.03
2022-10-23T02:07:52.946Z,94936.97
2022-10-23T02:10:20.483Z,94950.00
2022-10-23T02:12:49.676Z,94938.91
2022-10-23T02:15:40.569Z,94940.75
2022-10-23T02:18:27.674Z,94935.44
2022-10-23T02:21:18.083Z,94928.13
2022-10-23T02:23:56.171Z,94935.44
2022-10-23T02:26:36.695Z,94936.66
2022-10-23T02:29:10.945Z,94929.22
2022-10-23T02:31:37.569Z,94934.16
2022-10-23T02:34:04.232Z,94922.22
2022-10-23T02:36:30.725Z,94921.81
2022-10-23T02:38:57.424Z,94922.75
2022-10-23T02:41:40.351Z,94935.81
2022-10-23T02:44:13.709Z,94920.25
2022-10-23T02:46:43.083Z,94924.25
2022-10-23T02:49:31.529Z,94918.03
2022-10-23T02:52:23.304Z,94930.22
2022-10-23T02:54:59.179Z,94923.69
2022-10-23T02:58:08.144Z,94925.81
2022-10-23T03:00:37.918Z,94918.69
2022-10-23T03:03:13.503Z,94913.00
2022-10-23T03:05:41.727Z,94908.94
2022-10-23T03:08:09.689Z,94899.00
2022-10-23T03:10:36.195Z,94905.00
2022-10-23T03:13:02.671Z,94908.78
2022-10-23T03:15:29.140Z,94904.53
2022-10-23T03:17:55.603Z,94902.66
2022-10-23T03:20:22.372Z,94895.81
2022-10-23T03:22:48.781Z,94893.34
2022-10-23T03:25:15.273Z,94916.00
2022-10-23T03:27:41.700Z,94903.19
2022-10-23T03:30:09.095Z,94908.81
2022-10-23T03:32:35.572Z,94903.19
2022-10-23T03:35:02.003Z,94907.75
2022-10-23T03:37:28.422Z,94912.59
2022-10-23T03:39:54.966Z,94913.38
2022-10-23T03:42:21.520Z,94907.50
2022-10-23T03:44:47.953Z,94907.59
2022-10-23T03:47:14.412Z,94922.25
2022-10-23T03:49:40.918Z,94906.81
2022-10-23T03:52:08.524Z,94897.28
2022-10-23T03:54:35.374Z,94891.69
2022-10-23T03:57:02.292Z,94893.13
2022-10-23T03:59:29.230Z,94892.09
2022-10-23T04:01:55.755Z,94893.44
2022-10-23T04:04:22.294Z,94890.31
2022-10-23T04:06:48.756Z,94888.47
2022-10-23T04:09:15.682Z,94903.81
2022-10-23T04:11:42.085Z,94901.97
2022-10-23T04:14:11.955Z,94881.03
2022-10-23T04:16:38.516Z,94886.88
2022-10-23T04:19:04.958Z,94887.03
2022-10-23T04:21:31.381Z,94879.47
2022-10-23T04:23:57.829Z,94874.69
2022-10-23T04:26:24.293Z,94877.25
2022-10-23T04:28:50.664Z,94875.59
2022-10-23T04:31:17.360Z,94867.44
2022-10-23T04:33:43.902Z,94863.13
2022-10-23T04:36:10.495Z,94864.16
2022-10-23T04:38:36.916Z,94864.38
2022-10-23T04:41:03.733Z,94869.69
2022-10-23T04:43:30.173Z,94868.44
2022-10-23T04:45:56.543Z,94866.97
2022-10-23T04:48:25.556Z,94870.75
2022-10-23T04:50:59.705Z,94863.56
2022-10-23T04:53:27.270Z,94861.03
2022-10-23T04:55:56.921Z,94864.41
2022-10-23T04:58:23.539Z,94857.47
2022-10-23T05:00:50.500Z,94858.59
2022-10-23T05:03:18.246Z,94852.66
2022-10-23T05:05:45.606Z,94852.81
2022-10-23T05:08:15.572Z,94855.13
2022-10-23T05:10:44.679Z,94843.59
2022-10-23T05:13:11.122Z,94850.22
2022-10-23T05:15:37.611Z,94852.16
2022-10-23T05:18:28.382Z,94851.19
2022-10-23T05:21:01.223Z,94857.47
2022-10-23T05:23:30.561Z,94851.56
2022-10-23T05:25:57.006Z,94845.41
2022-10-23T05:28:23.419Z,94857.00
2022-10-23T05:30:50.297Z,94846.94
2022-10-23T05:33:16.740Z,94859.84
2022-10-23T05:35:44.606Z,94851.38
2022-10-23T05:38:12.346Z,94845.09
2022-10-23T05:43:10.170Z,94854.34
2022-10-23T05:45:36.615Z,94838.34
2022-10-23T05:48:11.079Z,94834.22
2022-10-23T05:50:48.821Z,94846.94
2022-10-23T05:53:15.247Z,94837.63
2022-10-23T05:55:41.811Z,94846.56
2022-10-23T05:58:08.237Z,94838.41
2022-10-23T06:00:34.679Z,94842.25
2022-10-23T06:03:02.110Z,94833.94
2022-10-23T06:05:28.679Z,94831.41
2022-10-23T06:08:01.361Z,94837.44
2022-10-23T06:10:28.166Z,94831.28
2022-10-23T06:12:54.587Z,94833.97
2022-10-23T06:15:21.021Z,94835.72
2022-10-23T06:17:47.404Z,94837.44
2022-10-23T06:20:13.912Z,94852.16
2022-10-23T06:22:40.583Z,94844.44
2022-10-23T06:25:07.982Z,94847.16
2022-10-23T06:27:34.411Z,94847.56
2022-10-23T06:30:00.895Z,94845.59
2022-10-23T06:32:30.926Z,94850.00
2022-10-23T06:34:57.358Z,94844.56
2022-10-23T06:37:23.749Z,94863.16
2022-10-23T06:39:50.219Z,94853.41
2022-10-23T06:42:16.749Z,94856.06
2022-10-23T06:44:43.169Z,94851.19
2022-10-23T06:47:14.334Z,94854.97
2022-10-23T06:49:40.880Z,94860.78
2022-10-23T06:52:14.297Z,94854.78
2022-10-23T06:54:49.647Z,94864.81
2022-10-23T06:57:16.065Z,94866.38
2022-10-23T06:59:42.492Z,94863.06
2022-10-23T07:02:09.475Z,94859.19
2022-10-23T07:04:35.977Z,94862.06
2022-10-23T07:07:02.359Z,94868.75
2022-10-23T07:09:28.994Z,94863.38
2022-10-23T07:11:55.422Z,94871.47
2022-10-23T07:14:21.827Z,94865.84
2022-10-23T07:16:48.209Z,94864.44
2022-10-23T07:19:14.669Z,94854.81
2022-10-23T07:21:41.090Z,94848.19
2022-10-23T07:24:07.740Z,94853.53
2022-10-23T07:26:34.133Z,94851.44
2022-10-23T07:29:00.578Z,94845.97
2022-10-23T07:31:28.429Z,94839.78
2022-10-23T07:33:55.113Z,94839.59
2022-10-23T07:36:21.756Z,94833.19
2022-10-23T07:38:48.131Z,94839.78
2022-10-23T07:41:15.441Z,94845.41
2022-10-23T07:43:41.891Z,94838.09
2022-10-23T07:46:09.845Z,94839.13
2022-10-23T07:48:37.254Z,94839.63
2022-10-23T07:51:11.435Z,94844.59
2022-10-23T07:53:38.989Z,94845.22
2022-10-23T07:56:21.327Z,94842.41
2022-10-23T07:58:47.797Z,94843.72
2022-10-23T08:01:21.031Z,94847.81
2022-10-23T08:03:47.578Z,94850.19
2022-10-23T08:06:14.342Z,94836.16
2022-10-23T08:08:40.837Z,94835.75
2022-10-23T08:11:07.689Z,94834.91
2022-10-23T08:13:34.163Z,94830.91
2022-10-23T08:16:00.639Z,94834.53
2022-10-23T08:18:27.053Z,94835.13
2022-10-23T08:20:53.572Z,94838.91
2022-10-23T08:23:20.233Z,94831.66
2022-10-23T08:25:47.161Z,94829.34
2022-10-23T08:28:13.641Z,94827.00
2022-10-23T08:30:40.140Z,94829.06
2022-10-23T08:33:07.080Z,94826.31
2022-10-23T08:35:37.845Z,94820.09
2022-10-23T08:38:05.548Z,94814.25
2022-10-23T08:40:32.512Z,94812.88
2022-10-23T08:43:19.124Z,94796.28
2022-10-23T08:45:55.242Z,94795.97
2022-10-23T08:48:30.491Z,94794.16
2022-10-23T08:51:05.679Z,94803.50
2022-10-23T08:53:56.137Z,94804.09
2022-10-23T08:56:37.384Z,94784.09
2022-10-23T08:59:22.609Z,94789.13
2022-10-23T09:02:02.364Z,94793.66
2022-10-23T09:04:29.396Z,94787.50
2022-10-23T09:07:29.547Z,94787.47
2022-10-23T09:10:08.023Z,94785.69
2022-10-23T09:12:34.449Z,94791.53
2022-10-23T09:15:18.483Z,94790.09
2022-10-23T09:17:47.133Z,94779.44
2022-10-23T09:20:18.673Z,94768.00
2022-10-23T09:22:46.660Z,94773.00
2022-10-23T09:25:29.408Z,94771.09
2022-10-23T09:28:01.472Z,94775.91
2022-10-23T09:30:40.585Z,94774.19
2022-10-23T09:33:18.217Z,94765.34
2022-10-23T09:36:01.342Z,94749.06
2022-10-23T09:38:30.861Z,94753.94
2022-10-23T09:41:06.061Z,94746.78
2022-10-23T09:43:32.523Z,94743.69
2022-10-23T09:46:02.709Z,94746.88
2022-10-23T09:48:29.651Z,94740.53
2022-10-23T09:50:58.241Z,94747.03
2022-10-23T09:53:31.604Z,94735.84
2022-10-23T09:56:02.755Z,94738.56
2022-10-23T09:58:36.240Z,94741.56
2022-10-23T10:01:04.328Z,94732.06
2022-10-23T10:03:30.941Z,94738.53
2022-10-23T10:06:00.799Z,94748.53
2022-10-23T10:08:44.483Z,94760.25
2022-10-23T10:11:17.990Z,94756.81
2022-10-23T10:14:18.116Z,94750.56
2022-10-23T10:16:51.820Z,94746.56
2022-10-23T10:19:48.619Z,94743.34
2022-10-23T10:22:42.620Z,94742.25
2022-10-23T10:25:19.806Z,94742.03
2022-10-23T10:28:05.828Z,94727.75
2022-10-23T10:30:52.339Z,94736.78
2022-10-23T10:33:31.038Z,94730.88
2022-10-23T10:36:12.860Z,94718.13
2022-10-23T10:38:46.385Z,94712.53
2022-10-23T10:41:21.745Z,94711.47
2022-10-23T10:44:12.791Z,94711.16
2022-10-23T10:46:56.310Z,94696.84
2022-10-23T10:49:45.850Z,94702.34
2022-10-23T10:52:20.587Z,94684.03
2022-10-23T10:54:53.077Z,94699.16
2022-10-23T10:57:37.369Z,94694.63
2022-10-23T11:00:13.663Z,94689.00
2022-10-23T11:02:47.757Z,94674.34
2022-10-23T11:05:37.235Z,94681.41
2022-10-23T11:08:22.277Z,94685.44
2022-10-23T11:10:55.559Z,94683.03
2022-10-23T11:13:35.771Z,94683.56
2022-10-23T11:16:09.599Z,94684.72
2022-10-23T11:18:37.212Z,94671.28
2022-10-23T11:21:30.130Z,94678.28
2022-10-23T11:24:31.651Z,94677.78
2022-10-23T11:27:30.180Z,94678.53
2022-10-23T11:30:17.916Z,94660.66
2022-10-23T11:32:44.280Z,94659.31
2022-10-23T11:35:30.699Z,94647.66
2022-10-23T11:38:23.545Z,94655.66
2022-10-23T11:40:54.812Z,94647.91
2022-10-23T11:43:56.932Z,94645.09
2022-10-23T11:46:23.304Z,94633.91
2022-10-23T11:48:51.079Z,94618.22
2022-10-23T11:51:32.981Z,94617.88
2022-10-23T11:54:07.868Z,94619.44
2022-10-23T11:56:34.505Z,94627.34
2022-10-23T11:59:21.602Z,94646.50
2022-10-23T12:01:51.242Z,94636.94
2022-10-23T12:04:28.013Z,94632.28
2022-10-23T12:07:02.487Z,94636.44
2022-10-23T12:09:51.948Z,94635.75
2022-10-23T12:12:28.229Z,94630.22
2022-10-23T12:15:08.980Z,94619.97
2022-10-23T12:17:37.969Z,94631.16
2022-10-23T12:20:21.354Z,94622.88
2022-10-23T12:22:47.851Z,94624.53
2022-10-23T12:25:31.695Z,94621.41
2022-10-23T12:28:05.603Z,94602.63
2022-10-23T12:30:50.310Z,94620.88
2022-10-23T12:33:29.367Z,94620.13
2022-10-23T12:36:15.425Z,94614.13
2022-10-23T12:38:46.705Z,94620.31
2022-10-23T12:41:34.707Z,94609.72
2022-10-23T12:44:03.608Z,94624.75
2022-10-23T12:46:36.767Z,94618.63
2022-10-23T12:49:12.720Z,94606.88
2022-10-23T12:51:39.201Z,94602.06
2022-10-23T12:54:15.928Z,94594.72
2022-10-23T12:56:44.163Z,94590.16
2022-10-23T12:59:16.438Z,94587.63
2022-10-23T13:01:43.554Z,94596.19
2022-10-23T13:04:10.336Z,94602.97
2022-10-23T13:06:39.289Z,94592.66
2022-10-23T13:09:15.220Z,94595.81
2022-10-23T13:11:42.517Z,94584.06
2022-10-23T13:14:13.638Z,94593.06
2022-10-23T13:16:40.141Z,94582.59
2022-10-23T13:19:06.611Z,94590.06
2022-10-23T13:21:33.127Z,94577.13
2022-10-23T13:23:59.571Z,94591.28
2022-10-23T13:26:33.592Z,94584.53
2022-10-23T13:29:08.713Z,94590.41
2022-10-23T13:31:36.515Z,94575.69
2022-10-23T13:34:05.119Z,94568.47
2022-10-23T13:36:36.027Z,94576.47
2022-10-23T13:39:23.958Z,94579.03
2022-10-23T13:41:50.400Z,94566.69
2022-10-23T13:44:19.968Z,94568.19
2022-10-23T13:46:48.289Z,94573.31
2022-10-23T13:49:15.702Z,94572.78
2022-10-23T13:51:47.397Z,94565.59
2022-10-23T13:54:17.122Z,94561.06
2022-10-23T13:56:43.690Z,94569.19
2022-10-23T13:59:11.457Z,94568.31
2022-10-23T14:01:38.571Z,94562.53
2022-10-23T14:04:05.637Z,94566.28
2022-10-23T14:06:32.682Z,94558.16
2022-10-23T14:08:59.237Z,94564.47
2022-10-23T14:11:26.071Z,94556.25
2022-10-23T14:13:52.748Z,94557.59
2022-10-23T14:16:21.343Z,94557.31
2022-10-23T14:18:47.932Z,94555.16
2022-10-23T14:21:17.459Z,94564.34
2022-10-23T14:23:43.874Z,94562.06
2022-10-23T14:26:12.880Z,94568.94
2022-10-23T14:28:39.730Z,94578.28
2022-10-23T14:31:09.125Z,94575.13
2022-10-23T14:33:35.707Z,94578.53
2022-10-23T14:36:03.286Z,94568.16
2022-10-23T14:38:30.039Z,94563.19
2022-10-23T14:40:56.456Z,94557.69
2022-10-23T14:43:23.935Z,94565.69
2022-10-23T14:45:50.429Z,94563.06
2022-10-23T14:48:17.631Z,94560.78
2022-10-23T14:50:49.266Z,94560.59
2022-10-23T14:53:16.213Z,94563.00
2022-10-23T14:55:42.819Z,94568.25
2022-10-23T14:58:09.728Z,94561.31
2022-10-23T15:00:36.173Z,94553.16
2022-10-23T15:03:02.601Z,94561.81
2022-10-23T15:05:29.095Z,94555.00
2022-10-23T15:07:56.216Z,94549.75
2022-10-23T15:10:22.670Z,94554.47
2022-10-23T15:12:49.219Z,94552.84
2022-10-23T15:15:15.671Z,94545.84
2022-10-23T15:17:42.357Z,94546.69
2022-10-23T15:20:09.326Z,94542.66
2022-10-23T15:22:35.838Z,94544.19
2022-10-23T15:25:02.353Z,94540.06
2022-10-23T15:27:28.901Z,94527.75
2022-10-23T15:29:55.381Z,94525.13
2022-10-23T15:32:21.755Z,94536.44
2022-10-23T15:34:49.697Z,94531.88
2022-10-23T15:37:16.395Z,94524.31
2022-10-23T15:39:43.092Z,94508.44
2022-10-23T15:42:09.914Z,94503.63
2022-10-23T15:44:36.542Z,94512.78
2022-10-23T15:47:03.028Z,94504.03
2022-10-23T15:49:29.956Z,94509.16
2022-10-23T15:51:57.287Z,94502.34
2022-10-23T15:54:24.616Z,94508.13
2022-10-23T15:56:53.905Z,94502.34
2022-10-23T15:59:23.636Z,94514.72
2022-10-23T16:01:50.934Z,94512.06
2022-10-23T16:04:18.173Z,94514.50
2022-10-23T16:06:44.978Z,94511.41
2022-10-23T16:09:12.124Z,94503.03
2022-10-23T16:11:39.678Z,94509.50
2022-10-23T16:14:06.881Z,94501.16
2022-10-23T16:16:34.320Z,94489.38
2022-10-23T16:19:02.722Z,94501.69
2022-10-23T16:21:35.344Z,94496.94
2022-10-23T16:24:03.666Z,94503.72
2022-10-23T16:26:30.510Z,94503.78
2022-10-23T16:29:00.344Z,94505.97
2022-10-23T16:31:27.781Z,94494.66
2022-10-23T16:33:54.638Z,94482.72
2022-10-23T16:36:21.244Z,94483.16
2022-10-23T16:38:47.651Z,94498.38
2022-10-23T16:41:14.162Z,94505.38
2022-10-23T16:43:40.610Z,94498.66
2022-10-23T16:46:12.418Z,94496.06
2022-10-23T16:48:39.921Z,94513.69
2022-10-23T16:51:15.168Z,94508.06
2022-10-23T16:53:43.255Z,94504.38
2022-10-23T16:56:11.837Z,94517.41
2022-10-23T16:58:40.842Z,94511.56
2022-10-23T17:01:13.696Z,94524.38
2022-10-23T17:03:42.928Z,94535.66
2022-10-23T17:06:12.080Z,94529.19
2022-10-23T17:08:39.649Z,94540.75
2022-10-23T17:11:18.527Z,94543.41
2022-10-23T17:13:47.620Z,94544.69
2022-10-23T17:16:19.931Z,94547.34
2022-10-23T17:18:46.833Z,94552.97
2022-10-23T17:21:15.075Z,94552.50
2022-10-23T17:23:42.703Z,94558.63
2022-10-23T17:26:11.484Z,94555.91
2022-10-23T17:28:40.494Z,94569.06
2022-10-23T17:31:17.916Z,94572.63
2022-10-23T17:33:45.172Z,94572.66
2022-10-23T17:36:13.534Z,94577.19
2022-10-23T17:38:43.387Z,94581.41
2022-10-23T17:41:11.540Z,94572.53
2022-10-23T17:43:38.239Z,94562.59
2022-10-23T17:46:06.360Z,94564.91
2022-10-23T17:48:32.800Z,94570.25
2022-10-23T17:51:05.275Z,94571.06
2022-10-23T17:53:32.269Z,94561.94
2022-10-23T17:56:02.223Z,94559.91
2022-10-23T17:58:28.887Z,94573.47
2022-10-23T18:00:55.399Z,94565.09
2022-10-23T18:03:21.903Z,94565.47
2022-10-23T18:05:48.317Z,94562.22
2022-10-23T18:08:14.812Z,94559.28
2022-10-23T18:10:41.236Z,94568.31
2022-10-23T18:13:07.647Z,94556.44
2022-10-23T18:15:35.777Z,94560.03
2022-10-23T18:18:07.715Z,94564.13
2022-10-23T18:20:39.855Z,94566.31
2022-10-23T18:23:07.119Z,94565.59
2022-10-23T18:25:34.722Z,94567.72
2022-10-23T18:28:02.532Z,94581.34
2022-10-23T18:30:29.402Z,94577.91
2022-10-23T18:32:58.051Z,94573.22
2022-10-23T18:35:25.189Z,94583.28
2022-10-23T18:37:51.772Z,94588.38
2022-10-23T18:40:18.588Z,94577.41
2022-10-23T18:42:45.313Z,94564.50
2022-10-23T18:45:13.506Z,94567.78
2022-10-23T18:47:40.000Z,94561.63
2022-10-23T18:50:07.057Z,94557.09
2022-10-23T18:52:33.455Z,94558.38
2022-10-23T18:55:00.274Z,94553.94
2022-10-23T18:57:26.706Z,94537.06
2022-10-23T18:59:56.369Z,94547.06
2022-10-23T19:02:22.937Z,94547.84
2022-10-23T19:04:49.451Z,94545.13
2022-10-23T19:07:16.288Z,94542.53
2022-10-23T19:09:42.790Z,94546.06
2022-10-23T19:12:10.378Z,94538.38
2022-10-23T19:14:36.912Z,94541.31
2022-10-23T19:17:08.183Z,94541.59
2022-10-23T19:19:42.153Z,94546.09
2022-10-23T19:22:11.278Z,94556.94
2022-10-23T19:24:51.028Z,94562.72
2022-10-23T19:27:19.293Z,94556.66
2022-10-23T19:29:47.979Z,94565.44
2022-10-23T19:32:14.900Z,94562.34
2022-10-23T19:34:41.432Z,94562.03
2022-10-23T19:37:07.994Z,94572.41
2022-10-23T19:39:34.509Z,94571.56
2022-10-23T19:42:00.979Z,94586.72
2022-10-23T19:44:28.535Z,94578.75
2022-10-23T19:46:54.999Z,94568.88
2022-10-23T19:49:23.739Z,94569.66
2022-10-23T19:51:51.499Z,94579.53
2022-10-23T19:54:20.267Z,94582.69
2022-10-23T19:56:47.535Z,94552.22
2022-10-23T19:59:14.581Z,94579.56
2022-10-23T20:01:45.041Z,94594.75
2022-10-23T20:04:15.516Z,94589.13
2022-10-23T20:06:41.981Z,94583.34
2022-10-23T20:09:09.809Z,94588.94
2022-10-23T20:11:38.758Z,94586.63
2022-10-23T20:14:05.265Z,94593.16
2022-10-23T20:16:34.920Z,94594.78
2022-10-23T20:19:04.238Z,94592.91
2022-10-23T20:21:30.706Z,94599.00
2022-10-23T20:23:58.622Z,94601.97
2022-10-23T20:26:25.913Z,94603.59
2022-10-23T20:28:54.876Z,94609.75
2022-10-23T20:31:23.504Z,94611.59
2022-10-23T20:33:50.814Z,94618.72
2022-10-23T20:36:29.574Z,94622.91
2022-10-23T20:38:57.639Z,94626.34
2022-10-23T20:41:26.973Z,94629.31
2022-10-23T20:43:55.430Z,94634.91
2022-10-23T20:46:22.882Z,94643.47
2022-10-23T20:48:49.870Z,94644.75
2022-10-23T20:51:19.363Z,94638.06
2022-10-23T20:53:46.241Z,94646.78
2022-10-23T20:56:14.354Z,94640.16
2022-10-23T20:58:40.844Z,94640.63
2022-10-23T21:01:09.938Z,94649.91
2022-10-23T21:03:37.404Z,94649.63
2022-10-23T21:06:08.857Z,94650.06
2022-10-23T21:08:35.914Z,94659.09
2022-10-23T21:11:02.366Z,94664.66
2022-10-23T21:13:29.041Z,94668.84
2022-10-23T21:15:56.135Z,94665.13
2022-10-23T21:18:34.061Z,94671.94
2022-10-23T21:21:11.735Z,94678.75
2022-10-23T21:23:38.395Z,94683.28
2022-10-23T21:26:07.498Z,94676.34
2022-10-23T21:28:34.710Z,94686.28
2022-10-23T21:31:06.401Z,94687.41
2022-10-23T21:33:33.822Z,94691.66
2022-10-23T21:36:11.843Z,94698.63
2022-10-23T21:38:39.786Z,94732.47
2022-10-23T21:41:11.540Z,94787.00
2022-10-23T21:43:38.072Z,94811.03
2022-10-23T21:46:05.893Z,94847.66
2022-10-23T21:48:33.175Z,94852.47
2022-10-23T21:51:00.235Z,94835.88
2022-10-23T21:53:27.713Z,94844.72
2022-10-23T21:55:56.143Z,94856.97
2022-10-23T21:58:22.547Z,94856.00
2022-10-23T22:00:48.980Z,94848.16
2022-10-23T22:03:15.420Z,94862.78
2022-10-23T22:05:41.831Z,94856.47
2022-10-23T22:08:08.276Z,94876.78
2022-10-23T22:10:35.149Z,94867.69
2022-10-23T22:13:01.528Z,94871.19
2022-10-23T22:15:28.023Z,94862.06
2022-10-23T22:17:54.484Z,94866.25
2022-10-23T22:20:21.162Z,94865.00
2022-10-23T22:22:47.629Z,94881.59
2022-10-23T22:25:14.055Z,94884.53
2022-10-23T22:27:40.442Z,94882.13
2022-10-23T22:30:07.271Z,94888.81
2022-10-23T22:32:35.464Z,94890.41
2022-10-23T22:35:01.843Z,94902.44
2022-10-23T22:37:28.284Z,94898.69
2022-10-23T22:39:54.754Z,94898.94
2022-10-23T22:42:21.136Z,94905.94
2022-10-23T22:44:47.587Z,94909.41
2022-10-23T22:47:13.999Z,94901.38
2022-10-23T22:49:40.438Z,94909.66
2022-10-23T22:52:06.865Z,94897.03
2022-10-23T22:54:33.319Z,94898.44
2022-10-23T22:56:59.768Z,94883.69
2022-10-23T22:59:26.441Z,94884.53
2022-10-23T23:01:52.906Z,94882.13
2022-10-23T23:04:37.305Z,94885.25
2022-10-23T23:07:06.728Z,94878.09
2022-10-23T23:09:36.288Z,94880.25
2022-10-23T23:12:02.684Z,94890.41
2022-10-23T23:14:29.126Z,94899.50
2022-10-23T23:16:55.580Z,94902.69
2022-10-23T23:19:22.943Z,94896.56
2022-10-23T23:21:49.631Z,94900.56
2022-10-23T23:24:16.025Z,94917.41
2022-10-23T23:26:42.467Z,94922.22
2022-10-23T23:29:08.893Z,94923.03
2022-10-23T23:31:35.352Z,94926.78
2022-10-23T23:34:01.886Z,94917.94
2022-10-23T23:36:28.920Z,94930.00
2022-10-23T23:38:57.246Z,94931.31
2022-10-23T23:41:25.302Z,94939.31
2022-10-23T23:43:54.367Z,94935.06
2022-10-23T23:46:20.928Z,94936.94
2022-10-23T23:48:49.290Z,94940.13
2022-10-23T23:51:18.428Z,94950.56
2022-10-23T23:53:44.909Z,94945.47
2022-10-23T23:56:11.368Z,94943.88
2022-10-23T23:58:37.881Z,94942.53
